Terminal Aerodrome Forecast
Issued by NWS Lubbock, TX

Home | Current Version | Previous Version | Text Only | Print | Product List | Glossary On
Versions: 1 2 3 4 5 6 7 8 9 10 11 12 13 14 15 16 17 18 19
764
FTUS44 KLUB 251529 AAA
TAFLBB
TAF AMD
KLBB 251529Z 2515/2612 VRB05KT P6SM SCT030 BKN120
      TEMPO 2515/2517 BKN020
     FM252200 17011KT P6SM VCTS SCT050CB BKN200
     FM260000 18011KT P6SM SCT050 BKN200 PROB30 2600/2603 -TSRA
      BKN050CB=

USA.gov is the U.S. government's official web portal to all federal, state and local government web resources and services.